Time;durP1;ratioP1;P1;durP2;ratioP2;P2;SDS_P1;SDS_P2;PMS_P1;PMS_P2;Temp;Humidity;BMP_temperature;BMP_pressure;BME280_temperature;BME280_humidity;BME280_pressure;Samples;Min_cycle;Max_cycle;Signal;HPM_P1;HPM_P2
2021/07/08 00:00:25;;;;;;;2.47;1.00;;;;;;;13.19;100.00;93367.09;2569917;23;20743;-83
2021/07/08 00:01:27;;;;;;;1.77;1.00;;;;;;;13.18;100.00;93362.91;2560412;23;20024;-83
2021/07/08 00:02:28;;;;;;;3.15;0.90;;;;;;;13.18;100.00;93352.16;2570067;23;20074;-82
2021/07/08 00:03:29;;;;;;;1.30;1.00;;;;;;;13.19;100.00;93356.34;2557494;23;20100;-82
2021/07/08 00:04:30;;;;;;;3.75;0.90;;;;;;;13.19;100.00;93353.66;2557728;23;20029;-82
2021/07/08 00:05:34;;;;;;;2.85;0.85;;;;;;;13.20;100.00;93347.88;2569837;23;20087;-82
2021/07/08 00:06:35;;;;;;;2.53;0.80;;;;;;;13.18;100.00;93346.81;2558188;23;20005;-82
2021/07/08 00:07:37;;;;;;;0.80;0.80;;;;;;;13.19;100.00;93342.94;2545179;23;20017;-82
2021/07/08 00:08:37;;;;;;;3.35;0.98;;;;;;;13.19;100.00;93353.66;2557374;23;20008;-82
2021/07/08 00:09:38;;;;;;;2.63;1.10;;;;;;;13.19;100.00;93349.03;2570033;23;20000;-82
2021/07/08 00:10:43;;;;;;;4.80;1.10;;;;;;;13.18;100.00;93346.81;2569947;23;20000;-82
2021/07/08 00:11:44;;;;;;;0.90;0.90;;;;;;;13.17;100.00;93346.06;2559279;23;20029;-82
2021/07/08 00:12:45;;;;;;;3.75;0.90;;;;;;;13.16;100.00;93344.53;2569925;23;20004;-82
2021/07/08 00:13:47;;;;;;;1.70;1.15;;;;;;;13.08;100.00;93340.53;2582612;23;20030;-82
2021/07/08 00:14:47;;;;;;;1.08;0.95;;;;;;;13.14;100.00;93343.47;2583267;22;20079;-82
2021/07/08 00:15:49;;;;;;;5.05;1.10;;;;;;;13.10;100.00;93341.63;2582556;23;20004;-82
2021/07/08 00:16:49;;;;;;;6.22;1.00;;;;;;;13.13;100.00;93345.41;2570019;23;20083;-82
2021/07/08 00:17:50;;;;;;;1.05;0.85;;;;;;;13.12;100.00;93338.50;2582500;23;20439;-82
2021/07/08 00:18:52;;;;;;;1.95;1.10;;;;;;;13.14;100.00;93335.41;2569882;23;20005;-82
2021/07/08 00:19:53;;;;;;;0.80;0.65;;;;;;;13.14;100.00;93330.03;2545696;23;20025;-82
2021/07/08 00:20:55;;;;;;;2.58;1.00;;;;;;;13.15;100.00;93324.22;2544823;23;20001;-82
2021/07/08 00:21:56;;;;;;;1.35;0.90;;;;;;;13.10;100.00;93324.78;2557810;23;20004;-82
2021/07/08 00:22:56;;;;;;;1.13;1.00;;;;;;;13.11;100.00;93312.84;2569866;23;20004;-82
2021/07/08 00:23:57;;;;;;;1.52;0.93;;;;;;;13.18;100.00;93314.59;2557351;23;20518;-82
2021/07/08 00:24:58;;;;;;;2.95;0.93;;;;;;;13.16;100.00;93324.97;2569912;23;20004;-82
2021/07/08 00:25:58;;;;;;;1.80;0.93;;;;;;;13.13;100.00;93315.13;2582402;23;20000;-82
2021/07/08 00:26:59;;;;;;;1.98;1.08;;;;;;;13.07;100.00;93323.69;2582470;23;20004;-82
2021/07/08 00:28:00;;;;;;;4.35;1.13;;;;;;;13.08;100.00;93324.44;2569789;23;20005;-82
2021/07/08 00:29:02;;;;;;;1.67;1.05;;;;;;;13.06;100.00;93324.09;2557450;23;20000;-82
2021/07/08 00:30:06;;;;;;;2.20;1.15;;;;;;;13.01;100.00;93328.06;2557498;23;20012;-82
2021/07/08 00:31:06;;;;;;;3.88;0.90;;;;;;;13.02;100.00;93340.31;2557834;23;20092;-82
2021/07/08 00:32:07;;;;;;;0.90;0.90;;;;;;;13.05;100.00;93344.84;2545095;23;20345;-82
2021/07/08 00:33:09;;;;;;;1.52;0.98;;;;;;;13.02;100.00;93348.34;2557089;23;20068;-82
2021/07/08 00:34:09;;;;;;;2.13;0.95;;;;;;;13.05;100.00;93352.88;2557583;23;20009;-82
2021/07/08 00:35:10;;;;;;;1.40;0.95;;;;;;;13.02;100.00;93359.09;2545159;23;20006;-82
2021/07/08 00:36:11;;;;;;;4.30;0.88;;;;;;;13.05;100.00;93360.19;2557687;23;20000;-82
2021/07/08 00:37:12;;;;;;;2.88;0.90;;;;;;;13.06;100.00;93364.38;2569514;23;20001;-82
2021/07/08 00:38:13;;;;;;;0.85;0.85;;;;;;;13.09;100.00;93368.88;2570006;23;20115;-82
2021/07/08 00:39:13;;;;;;;1.45;0.88;;;;;;;13.03;100.00;93365.97;2569890;23;20447;-82
2021/07/08 00:40:15;;;;;;;1.48;1.02;;;;;;;13.07;100.00;93365.88;2569969;23;20001;-82
2021/07/08 00:41:16;;;;;;;1.42;0.90;;;;;;;13.04;100.00;93370.16;2569829;23;20028;-83
2021/07/08 00:42:17;;;;;;;1.55;1.05;;;;;;;13.05;100.00;93373.59;2569803;23;20005;-83
2021/07/08 00:43:18;;;;;;;1.08;0.93;;;;;;;13.01;100.00;93371.00;2557414;23;20008;-83
2021/07/08 00:44:19;;;;;;;0.75;0.75;;;;;;;13.01;100.00;93370.25;2569624;23;20001;-82
2021/07/08 00:45:21;;;;;;;2.35;0.98;;;;;;;13.00;100.00;93368.75;2569673;23;20020;-83
2021/07/08 00:46:22;;;;;;;1.00;0.90;;;;;;;12.98;100.00;93377.22;2569835;23;20004;-83
2021/07/08 00:47:23;;;;;;;3.72;1.20;;;;;;;12.94;100.00;93383.84;2557330;23;20013;-83
2021/07/08 00:48:24;;;;;;;2.50;1.13;;;;;;;12.94;100.00;93387.28;2544874;23;20006;-83
2021/07/08 00:49:25;;;;;;;5.85;1.00;;;;;;;12.94;100.00;93381.16;2557495;23;20063;-83
2021/07/08 00:50:30;;;;;;;2.53;1.00;;;;;;;12.94;100.00;93392.66;2557598;23;20071;-83
2021/07/08 00:51:31;;;;;;;2.25;1.15;;;;;;;13.00;100.00;93385.59;2569915;23;20032;-82
2021/07/08 00:52:32;;;;;;;1.38;0.93;;;;;;;13.03;100.00;93392.78;2544960;23;20600;-83
2021/07/08 00:53:33;;;;;;;2.40;1.17;;;;;;;13.00;100.00;93385.59;2557505;23;20005;-83
2021/07/08 00:54:33;;;;;;;3.08;0.90;;;;;;;13.04;100.00;93383.59;2569802;23;20032;-83
2021/07/08 00:55:34;;;;;;;2.95;0.90;;;;;;;12.96;100.00;93387.63;2569732;23;20027;-82
2021/07/08 00:56:35;;;;;;;1.60;1.50;;;;;;;12.93;100.00;93383.09;2557095;23;20032;-83
2021/07/08 00:57:40;;;;;;;4.70;1.08;;;;;;;12.95;100.00;93378.09;2557234;23;20000;-83
2021/07/08 00:58:46;;;;;;;4.78;1.00;;;;;;;12.95;100.00;93385.34;2546581;23;20084;-83
2021/07/08 00:59:47;;;;;;;3.00;0.80;;;;;;;12.95;100.00;93385.34;2547176;23;20001;-83
2021/07/08 01:00:48;;;;;;;1.02;0.93;;;;;;;12.94;100.00;93394.59;2545182;23;20551;-82
2021/07/08 01:01:51;;;;;;;1.23;0.98;;;;;;;12.92;100.00;93389.66;2545071;23;20033;-83
2021/07/08 01:02:52;;;;;;;1.98;0.90;;;;;;;12.90;100.00;93396.59;2558331;23;20011;-83
2021/07/08 01:03:54;;;;;;;8.70;1.38;;;;;;;12.91;100.00;93404.25;2570028;23;20403;-83
2021/07/08 01:04:55;;;;;;;1.42;1.00;;;;;;;12.93;100.00;93406.50;2557416;23;20617;-83
2021/07/08 01:05:55;;;;;;;4.50;0.90;;;;;;;12.93;100.00;93401.13;2569879;22;20027;-83
2021/07/08 01:06:56;;;;;;;3.35;1.00;;;;;;;12.93;100.00;93406.50;2569555;23;20001;-82
2021/07/08 01:07:57;;;;;;;2.28;1.02;;;;;;;12.94;100.00;93406.06;2544886;23;20013;-82
2021/07/08 01:08:59;;;;;;;1.13;0.90;;;;;;;12.92;100.00;93407.69;2557076;23;20009;-82
2021/07/08 01:10:00;;;;;;;1.55;0.95;;;;;;;12.91;100.00;93408.88;2557556;23;20134;-83
2021/07/08 01:11:01;;;;;;;1.98;1.10;;;;;;;12.93;100.00;93401.88;2569870;23;20011;-83
2021/07/08 01:12:02;;;;;;;2.40;1.00;;;;;;;12.89;100.00;93398.53;2569923;23;20000;-83
2021/07/08 01:13:03;;;;;;;1.60;0.90;;;;;;;12.88;100.00;93396.28;2569626;23;20005;-83
2021/07/08 01:14:07;;;;;;;3.47;1.20;;;;;;;12.94;100.00;93394.59;2569549;23;20008;-83
2021/07/08 01:15:11;;;;;;;2.13;0.90;;;;;;;12.88;100.00;93393.59;2558618;23;20028;-83
2021/07/08 01:16:11;;;;;;;1.33;0.93;;;;;;;12.86;100.00;93385.97;2557798;23;20013;-83
2021/07/08 01:17:12;;;;;;;1.23;1.10;;;;;;;12.84;100.00;93377.59;2557368;23;20001;-82
2021/07/08 01:18:13;;;;;;;1.95;1.05;;;;;;;12.81;100.00;93389.91;2582258;23;20030;-82
2021/07/08 01:19:13;;;;;;;4.40;1.00;;;;;;;12.79;100.00;93378.13;2582165;23;20004;-83
2021/07/08 01:20:17;;;;;;;2.33;1.00;;;;;;;12.84;100.00;93382.97;2557229;23;20001;-83
2021/07/08 01:21:21;;;;;;;4.28;1.00;;;;;;;12.87;100.00;93376.00;2558146;23;20009;-83
2021/07/08 01:22:22;;;;;;;9.68;1.10;;;;;;;12.82;100.00;93378.03;2569657;23;20004;-83
2021/07/08 01:23:23;;;;;;;1.63;1.05;;;;;;;12.86;100.00;93377.91;2557210;23;20080;-83
2021/07/08 01:24:23;;;;;;;0.77;0.77;;;;;;;12.85;100.00;93369.13;2569590;23;20005;-83
2021/07/08 01:25:33;;;;;;;2.33;0.93;;;;;;;12.88;100.00;93372.91;2582059;23;20004;-83
2021/07/08 01:26:38;;;;;;;1.33;1.05;;;;;;;12.89;100.00;93368.28;2559069;23;20738;-83
2021/07/08 01:27:39;;;;;;;1.23;1.00;;;;;;;12.90;100.00;93367.09;2546862;23;20333;-82
2021/07/08 01:28:40;;;;;;;2.00;1.10;;;;;;;12.89;100.00;93357.53;2545004;23;20029;-83
2021/07/08 01:29:41;;;;;;;3.78;1.20;;;;;;;12.80;100.00;93363.53;2557335;23;20071;-83
2021/07/08 01:30:46;;;;;;;1.35;1.00;;;;;;;12.81;100.00;93356.97;2557100;23;20395;-83
2021/07/08 01:31:46;;;;;;;2.25;1.08;;;;;;;12.84;100.00;93354.19;2558036;23;20012;-83
2021/07/08 01:32:47;;;;;;;1.85;1.00;;;;;;;12.77;100.00;93346.34;2569423;23;20896;-82
2021/07/08 01:33:49;;;;;;;1.63;1.05;;;;;;;12.77;100.00;93340.22;2569381;23;20090;-83
2021/07/08 01:34:50;;;;;;;2.55;0.93;;;;;;;12.77;100.00;93342.91;2545297;23;20013;-83
2021/07/08 01:35:51;;;;;;;2.30;1.00;;;;;;;12.76;100.00;93333.34;2557292;23;20464;-82
2021/07/08 01:36:52;;;;;;;1.98;1.00;;;;;;;12.73;100.00;93332.28;2557073;23;20780;-83
2021/07/08 01:37:53;;;;;;;1.38;1.02;;;;;;;12.73;100.00;93328.81;2545060;23;20740;-82
2021/07/08 01:38:53;;;;;;;9.48;1.33;;;;;;;12.77;100.00;93330.25;2569847;23;20011;-83
2021/07/08 01:39:54;;;;;;;2.08;1.00;;;;;;;12.71;100.00;93326.56;2569577;23;20012;-83
2021/07/08 01:40:55;;;;;;;3.72;1.00;;;;;;;12.74;100.00;93333.03;2545057;23;20072;-82
2021/07/08 01:41:55;;;;;;;1.35;1.00;;;;;;;12.73;100.00;93326.94;2557198;23;20516;-83
2021/07/08 01:42:56;;;;;;;3.42;1.10;;;;;;;12.73;100.00;93323.47;2557079;23;20101;-82
2021/07/08 01:43:57;;;;;;;3.30;1.30;;;;;;;12.74;100.00;93322.31;2556888;23;20382;-82
2021/07/08 01:44:58;;;;;;;1.48;0.90;;;;;;;12.75;100.00;93323.81;2542706;23;20020;-83
2021/07/08 01:45:58;;;;;;;1.67;0.95;;;;;;;12.78;100.00;93321.03;2555311;23;20001;-82
2021/07/08 01:46:59;;;;;;;1.95;1.65;;;;;;;12.76;100.00;93325.31;2555396;23;20443;-82
2021/07/08 01:48:00;;;;;;;2.08;1.05;;;;;;;12.84;100.00;93326.63;2555526;23;20001;-83
2021/07/08 01:49:00;;;;;;;2.45;1.13;;;;;;;12.78;100.00;93331.03;2543885;23;20444;-82
2021/07/08 01:50:01;;;;;;;2.03;1.10;;;;;;;12.75;100.00;93332.59;2544555;23;20005;-82
2021/07/08 01:51:11;;;;;;;1.17;1.00;;;;;;;12.73;100.00;93334.19;2544454;23;20031;-82
2021/07/08 01:52:12;;;;;;;2.55;1.08;;;;;;;12.75;100.00;93335.28;2560553;23;20443;-82
2021/07/08 01:53:15;;;;;;;8.70;1.55;;;;;;;12.75;100.00;93340.66;2581897;23;20008;-82
2021/07/08 01:54:16;;;;;;;1.17;0.90;;;;;;;12.72;100.00;93343.41;2581689;23;20004;-83
2021/07/08 01:55:17;;;;;;;2.03;1.08;;;;;;;12.72;100.00;93349.53;2569171;23;20454;-82
2021/07/08 01:56:17;;;;;;;2.25;1.08;;;;;;;12.70;100.00;93346.53;2557010;23;20460;-82
2021/07/08 01:57:18;;;;;;;1.75;1.08;;;;;;;12.71;100.00;93342.66;2556651;23;20004;-83
2021/07/08 01:58:19;;;;;;;1.23;1.00;;;;;;;12.69;100.00;93339.69;2556920;23;20028;-82
2021/07/08 01:59:19;;;;;;;2.40;1.08;;;;;;;12.68;100.00;93350.81;2557110;23;20445;-82
2021/07/08 02:00:22;;;;;;;1.05;0.77;;;;;;;12.68;100.00;93348.88;2569526;23;20001;-82
2021/07/08 02:01:23;;;;;;;1.15;1.05;;;;;;;12.72;100.00;93341.50;2569566;23;20004;-83
2021/07/08 02:02:24;;;;;;;2.65;0.95;;;;;;;12.71;100.00;93349.97;2557345;23;20000;-82
2021/07/08 02:03:25;;;;;;;1.25;1.15;;;;;;;12.72;100.00;93338.81;2569653;23;20004;-82
2021/07/08 02:04:26;;;;;;;3.20;1.33;;;;;;;12.73;100.00;93352.97;2569637;23;20090;-82
2021/07/08 02:05:26;;;;;;;2.97;1.10;;;;;;;12.71;100.00;93348.03;2569476;23;20001;-83
2021/07/08 02:06:27;;;;;;;2.40;1.02;;;;;;;12.73;100.00;93353.75;2556916;23;20012;-82
2021/07/08 02:07:28;;;;;;;2.25;1.10;;;;;;;12.68;100.00;93356.16;2557255;23;20005;-82
2021/07/08 02:08:29;;;;;;;3.20;1.05;;;;;;;12.68;100.00;93353.50;2569336;23;20005;-83
2021/07/08 02:09:30;;;;;;;1.50;0.90;;;;;;;12.70;100.00;93359.94;2569307;23;20004;-82
2021/07/08 02:10:31;;;;;;;3.08;1.30;;;;;;;12.69;100.00;93346.97;2582292;23;20011;-83
2021/07/08 02:11:32;;;;;;;3.15;1.20;;;;;;;12.71;100.00;93363.38;2582186;23;20027;-82
2021/07/08 02:12:33;;;;;;;2.42;1.10;;;;;;;12.66;100.00;93350.50;2557213;23;20424;-82
2021/07/08 02:13:34;;;;;;;3.47;1.10;;;;;;;12.66;100.00;93347.81;2557028;23;20033;-82
2021/07/08 02:14:35;;;;;;;6.03;1.20;;;;;;;12.69;100.00;93345.03;2569627;23;20415;-82
2021/07/08 02:15:36;;;;;;;4.47;1.40;;;;;;;12.68;100.00;93346.19;2557131;23;20009;-82
2021/07/08 02:16:37;;;;;;;5.50;0.80;;;;;;;12.68;100.00;93337.41;2544888;23;20550;-82
2021/07/08 02:17:40;;;;;;;1.67;0.93;;;;;;;12.63;100.00;93344.03;2557263;23;20404;-83
2021/07/08 02:18:42;;;;;;;1.25;0.98;;;;;;;12.66;100.00;93339.75;2569943;23;20771;-82
2021/07/08 02:19:42;;;;;;;1.15;1.05;;;;;;;12.66;100.00;93329.78;2557249;23;20083;-82
2021/07/08 02:20:44;;;;;;;0.77;0.77;;;;;;;12.63;100.00;93338.66;2569178;23;20008;-83
2021/07/08 02:21:44;;;;;;;1.45;1.00;;;;;;;12.66;100.00;93335.16;2557331;23;20032;-83
2021/07/08 02:22:46;;;;;;;0.77;0.77;;;;;;;12.70;100.00;93348.47;2569477;23;20009;-82
2021/07/08 02:23:46;;;;;;;2.17;0.90;;;;;;;12.69;100.00;93347.72;2557460;23;20009;-82
2021/07/08 02:24:47;;;;;;;3.88;1.42;;;;;;;12.71;100.00;93347.28;2582069;23;20000;-82
2021/07/08 02:25:48;;;;;;;0.80;0.80;;;;;;;12.67;100.00;93342.00;2569397;23;20034;-82
2021/07/08 02:26:48;;;;;;;2.90;1.20;;;;;;;12.74;100.00;93341.09;2557256;23;20016;-82
2021/07/08 02:27:49;;;;;;;1.92;1.10;;;;;;;12.74;100.00;93343.75;2557045;23;20008;-83
2021/07/08 02:28:51;;;;;;;2.75;1.20;;;;;;;12.74;100.00;93335.72;2557064;23;20033;-83
2021/07/08 02:29:51;;;;;;;1.73;1.00;;;;;;;12.77;100.00;93337.53;2557169;23;20016;-82
2021/07/08 02:30:52;;;;;;;1.80;1.20;;;;;;;12.76;100.00;93346.75;2544762;23;20005;-82
2021/07/08 02:31:53;;;;;;;1.50;0.90;;;;;;;12.83;100.00;93343.91;2544882;23;20798;-84
2021/07/08 02:32:56;;;;;;;3.20;0.98;;;;;;;12.95;100.00;93340.53;2544299;23;20052;-82
2021/07/08 02:33:57;;;;;;;1.00;0.93;;;;;;;12.86;100.00;93351.09;2557924;23;20021;-83
2021/07/08 02:34:58;;;;;;;4.03;1.00;;;;;;;12.87;100.00;93349.94;2556949;23;20005;-83
2021/07/08 02:35:59;;;;;;;1.35;1.25;;;;;;;12.82;100.00;93356.56;2544961;23;20531;-83
2021/07/08 02:37:00;;;;;;;1.35;1.20;;;;;;;12.81;100.00;93365.78;2556979;23;20001;-83
2021/07/08 02:38:01;;;;;;;1.50;0.90;;;;;;;12.85;100.00;93363.00;2532589;23;20441;-83
2021/07/08 02:39:05;;;;;;;1.65;0.98;;;;;;;12.82;100.00;93375.34;2544646;23;20009;-83
2021/07/08 02:40:14;;;;;;;1.45;0.95;;;;;;;12.83;100.00;93389.50;2557793;23;20491;-83
2021/07/08 02:41:15;;;;;;;3.88;1.30;;;;;;;12.88;100.00;93389.00;2558792;23;20005;-83
2021/07/08 02:42:15;;;;;;;1.45;1.13;;;;;;;12.88;100.00;93397.03;2544717;23;20002;-83
2021/07/08 02:43:16;;;;;;;2.15;1.45;;;;;;;12.91;100.00;93406.19;2556913;23;20336;-83
2021/07/08 02:44:17;;;;;;;1.38;1.20;;;;;;;12.86;100.00;93402.06;2556905;23;20009;-83
2021/07/08 02:45:20;;;;;;;1.98;1.27;;;;;;;12.87;100.00;93408.94;2532140;23;20006;-83
2021/07/08 02:46:20;;;;;;;2.95;1.02;;;;;;;12.85;100.00;93405.94;2533435;23;20413;-83
2021/07/08 02:47:21;;;;;;;1.25;1.05;;;;;;;12.96;100.00;93401.06;2532742;23;20069;-83
2021/07/08 02:48:22;;;;;;;2.28;1.20;;;;;;;12.98;100.00;93400.63;2544651;23;20084;-83
2021/07/08 02:49:24;;;;;;;1.23;1.20;;;;;;;13.00;100.00;93399.03;2557113;23;20013;-83
2021/07/08 02:50:26;;;;;;;1.25;1.10;;;;;;;13.08;100.00;93397.66;2544796;23;20032;-83
2021/07/08 02:51:27;;;;;;;1.15;1.05;;;;;;;13.07;100.00;93401.50;2532987;23;20433;-83
2021/07/08 02:52:27;;;;;;;1.30;1.20;;;;;;;13.10;100.00;93389.94;2532575;23;20085;-82
2021/07/08 02:53:29;;;;;;;7.18;1.30;;;;;;;13.10;100.00;93406.03;2544709;23;20372;-83
2021/07/08 02:54:29;;;;;;;1.90;1.17;;;;;;;13.11;100.00;93404.09;2544719;23;20010;-83
2021/07/08 02:55:30;;;;;;;1.10;1.00;;;;;;;13.09;100.00;93404.53;2532356;23;20006;-83
2021/07/08 02:56:31;;;;;;;1.50;1.40;;;;;;;13.14;100.00;93403.25;2532754;23;20009;-83
2021/07/08 02:57:32;;;;;;;1.48;1.30;;;;;;;13.15;100.00;93390.59;2544509;23;20032;-83
2021/07/08 02:58:33;;;;;;;1.40;1.30;;;;;;;13.18;100.00;93397.81;2556889;23;20001;-83
2021/07/08 02:59:33;;;;;;;2.50;1.20;;;;;;;13.20;100.00;93395.44;2557090;23;20424;-83
2021/07/08 03:00:34;;;;;;;1.17;1.08;;;;;;;13.17;100.00;93393.59;2557477;23;20005;-83
2021/07/08 03:01:35;;;;;;;11.15;1.40;;;;;;;13.17;100.00;93393.59;2557684;23;20009;-83
2021/07/08 03:02:36;;;;;;;1.42;1.33;;;;;;;13.18;100.00;93397.81;2557958;23;20005;-83
2021/07/08 03:03:37;;;;;;;7.25;1.10;;;;;;;13.19;100.00;93389.31;2545579;23;20009;-83
2021/07/08 03:04:38;;;;;;;2.13;0.95;;;;;;;13.19;100.00;93392.00;2545637;23;20008;-83
2021/07/08 03:05:38;;;;;;;5.43;1.00;;;;;;;13.19;100.00;93397.38;2557805;23;20404;-83
2021/07/08 03:06:39;;;;;;;1.23;1.13;;;;;;;13.20;100.00;93390.81;2557901;23;20005;-83
2021/07/08 03:07:40;;;;;;;2.80;1.17;;;;;;;13.22;100.00;93396.56;2545233;23;20056;-82
2021/07/08 03:08:41;;;;;;;1.80;1.40;;;;;;;13.26;100.00;93388.41;2545822;23;20001;-82
2021/07/08 03:09:42;;;;;;;1.00;0.90;;;;;;;13.28;100.00;93392.16;2545178;23;20310;-83
2021/07/08 03:10:42;;;;;;;1.33;1.23;;;;;;;13.22;100.00;93395.78;2545488;23;20009;-83
2021/07/08 03:11:43;;;;;;;2.88;1.42;;;;;;;13.25;100.00;93390.31;2557957;23;20008;-82
2021/07/08 03:12:44;;;;;;;1.30;1.20;;;;;;;13.27;100.00;93387.97;2570158;23;20312;-82
2021/07/08 03:13:45;;;;;;;1.40;1.20;;;;;;;13.28;100.00;93384.09;2545316;23;20002;-82
2021/07/08 03:14:45;;;;;;;1.50;1.25;;;;;;;13.25;100.00;93378.81;2545510;23;20052;-83
2021/07/08 03:15:46;;;;;;;1.13;1.13;;;;;;;13.25;100.00;93386.88;2545482;23;20012;-82
2021/07/08 03:16:47;;;;;;;5.22;1.30;;;;;;;13.21;100.00;93384.25;2545412;23;20085;-83
2021/07/08 03:17:48;;;;;;;11.57;1.65;;;;;;;13.21;100.00;93389.63;2545577;23;20010;-82
2021/07/08 03:18:48;;;;;;;1.75;1.10;;;;;;;13.19;100.00;93386.63;2557799;23;20008;-83
2021/07/08 03:19:49;;;;;;;2.28;1.10;;;;;;;13.18;100.00;93379.00;2557702;23;20005;-82
2021/07/08 03:20:50;;;;;;;3.72;1.40;;;;;;;13.14;100.00;93379.09;2557789;23;20012;-82
2021/07/08 03:21:50;;;;;;;1.85;1.15;;;;;;;13.13;100.00;93377.59;2545106;23;20005;-83
2021/07/08 03:22:52;;;;;;;2.55;1.10;;;;;;;13.15;100.00;93388.66;2545302;23;20673;-83
2021/07/08 03:23:52;;;;;;;2.58;0.90;;;;;;;13.15;100.00;93379.84;2557658;23;20147;-82
2021/07/08 03:24:53;;;;;;;1.98;1.13;;;;;;;13.11;100.00;93378.00;2570181;23;20529;-83
2021/07/08 03:25:54;;;;;;;0.88;0.88;;;;;;;13.07;100.00;93382.72;2557665;23;20055;-83
2021/07/08 03:26:55;;;;;;;1.33;0.95;;;;;;;13.05;100.00;93370.91;2533249;23;20002;-83
2021/07/08 03:27:55;;;;;;;0.80;0.80;;;;;;;13.10;100.00;93368.47;2545256;23;20032;-83
2021/07/08 03:28:56;;;;;;;1.98;1.35;;;;;;;13.10;100.00;93365.78;2533188;23;20006;-83
2021/07/08 03:29:57;;;;;;;7.05;1.15;;;;;;;13.09;100.00;93369.63;2533157;23;20006;-83
2021/07/08 03:30:58;;;;;;;5.75;1.20;;;;;;;13.05;100.00;93366.31;2557625;23;20017;-82
2021/07/08 03:31:58;;;;;;;2.50;0.95;;;;;;;13.05;100.00;93360.94;2557573;23;20012;-83
2021/07/08 03:33:02;;;;;;;1.45;1.20;;;;;;;13.04;100.00;93359.44;2557566;23;20035;-83
2021/07/08 03:34:02;;;;;;;3.28;0.90;;;;;;;13.06;100.00;93353.63;2557753;23;20369;-83
2021/07/08 03:35:04;;;;;;;0.80;0.80;;;;;;;13.02;100.00;93348.34;2570084;23;20007;-83
2021/07/08 03:36:05;;;;;;;1.20;1.00;;;;;;;13.02;100.00;93347.59;2570075;23;20008;-83
2021/07/08 03:37:06;;;;;;;3.78;1.27;;;;;;;13.06;100.00;93343.66;2545224;23;20076;-83
2021/07/08 03:38:07;;;;;;;4.00;1.00;;;;;;;13.07;100.00;93345.16;2557644;23;20506;-83
2021/07/08 03:39:07;;;;;;;2.58;0.77;;;;;;;13.09;100.00;93339.38;2570023;23;20074;-83
2021/07/08 03:40:11;;;;;;;1.67;0.90;;;;;;;13.12;100.00;93333.13;2570245;23;20479;-83
2021/07/08 03:41:12;;;;;;;2.17;1.00;;;;;;;13.13;100.00;93328.53;2582800;23;20454;-83
2021/07/08 03:42:13;;;;;;;1.52;1.00;;;;;;;13.13;100.00;93321.25;2570190;23;20020;-84
2021/07/08 03:43:14;;;;;;;4.13;1.00;;;;;;;13.13;100.00;93309.75;2570022;23;20008;-83
2021/07/08 03:44:15;;;;;;;2.78;0.80;;;;;;;13.10;100.00;93296.00;2569955;23;20027;-83
2021/07/08 03:45:16;;;;;;;3.47;1.10;;;;;;;13.11;100.00;93300.19;2544846;23;20005;-83
2021/07/08 03:46:17;;;;;;;3.47;1.20;;;;;;;13.13;100.00;93290.97;2545558;23;20005;-84
2021/07/08 03:47:18;;;;;;;1.85;0.95;;;;;;;13.17;100.00;93284.31;2557607;23;20005;-84
2021/07/08 03:48:18;;;;;;;1.92;1.00;;;;;;;13.16;100.00;93285.47;2557520;23;20005;-84
2021/07/08 03:49:19;;;;;;;3.42;1.17;;;;;;;13.15;100.00;93277.84;2557711;23;20036;-83
2021/07/08 03:50:20;;;;;;;1.45;1.20;;;;;;;13.17;100.00;93270.91;2545256;23;20002;-83
2021/07/08 03:51:21;;;;;;;4.80;1.13;;;;;;;13.22;100.00;93280.34;2558028;23;20001;-83
2021/07/08 03:52:22;;;;;;;1.30;1.20;;;;;;;13.23;100.00;93279.19;2570157;23;20087;-84
2021/07/08 03:53:23;;;;;;;5.03;1.15;;;;;;;13.21;100.00;93271.53;2570065;23;20000;-83
2021/07/08 03:54:23;;;;;;;2.25;1.30;;;;;;;13.29;100.00;93277.47;2557659;23;20012;-83
2021/07/08 03:55:25;;;;;;;1.55;1.10;;;;;;;13.27;100.00;93277.91;2557352;23;20001;-83
2021/07/08 03:56:26;;;;;;;1.20;1.10;;;;;;;13.22;100.00;93270.38;2570090;23;20017;-83
2021/07/08 03:57:27;;;;;;;2.05;1.80;;;;;;;13.21;100.00;93278.81;2557283;23;20604;-83
2021/07/08 03:58:28;;;;;;;3.72;1.10;;;;;;;13.17;100.00;93275.50;2557615;23;19997;-83
2021/07/08 03:59:30;;;;;;;1.30;1.20;;;;;;;13.18;100.00;93277.00;2570032;23;20083;-83
2021/07/08 04:00:36;;;;;;;2.83;1.30;;;;;;;13.22;100.00;93274.97;2582688;23;20335;-82
2021/07/08 04:01:38;;;;;;;1.77;1.60;;;;;;;13.24;100.00;93278.75;2558614;23;20032;-82
2021/07/08 04:02:38;;;;;;;1.20;1.10;;;;;;;13.24;100.00;93286.81;2557984;23;20012;-83
2021/07/08 04:03:39;;;;;;;1.00;1.00;;;;;;;13.27;100.00;93287.91;2570047;23;20388;-82
2021/07/08 04:04:41;;;;;;;2.90;0.90;;;;;;;13.21;100.00;93290.31;2545280;23;20006;-83
2021/07/08 04:05:44;;;;;;;2.33;1.00;;;;;;;13.19;100.00;93290.00;2545706;23;20088;-82
2021/07/08 04:06:44;;;;;;;2.45;1.05;;;;;;;13.18;100.00;93293.13;2557962;23;20015;-82
2021/07/08 04:07:45;;;;;;;1.15;1.13;;;;;;;13.16;100.00;93292.78;2557382;23;20333;-82
2021/07/08 04:08:46;;;;;;;1.27;1.13;;;;;;;13.15;100.00;93288.59;2545275;23;20009;-83
2021/07/08 04:09:46;;;;;;;2.15;1.00;;;;;;;13.14;100.00;93285.16;2557367;23;20001;-82
2021/07/08 04:10:47;;;;;;;1.13;1.02;;;;;;;13.09;100.00;93283.00;2582656;23;20023;-83
2021/07/08 04:11:48;;;;;;;2.05;1.10;;;;;;;13.06;100.00;93276.56;2569916;23;20004;-83
2021/07/08 04:12:49;;;;;;;1.10;1.10;;;;;;;13.07;100.00;93280.00;2569874;23;20004;-83
2021/07/08 04:13:50;;;;;;;1.15;1.00;;;;;;;13.03;100.00;93268.59;2569980;23;20339;-83
2021/07/08 04:14:50;;;;;;;1.70;1.10;;;;;;;13.05;100.00;93269.69;2557521;23;20735;-83
2021/07/08 04:15:51;;;;;;;2.13;0.98;;;;;;;13.07;100.00;93266.56;2570126;23;20000;-83
2021/07/08 04:16:52;;;;;;;1.52;1.38;;;;;;;13.06;100.00;93260.44;2570087;23;20024;-83
2021/07/08 04:17:53;;;;;;;1.17;0.98;;;;;;;13.07;100.00;93261.19;2557651;23;20005;-82
2021/07/08 04:18:54;;;;;;;1.17;1.08;;;;;;;13.05;100.00;93256.28;2582486;23;20057;-83
2021/07/08 04:19:54;;;;;;;1.75;0.88;;;;;;;13.05;100.00;93253.59;2569876;23;20336;-83
2021/07/08 04:20:55;;;;;;;7.82;1.20;;;;;;;13.15;100.00;93267.13;2557591;23;20001;-83
2021/07/08 04:21:56;;;;;;;2.63;1.10;;;;;;;13.21;100.00;93270.78;2544844;23;20432;-83
2021/07/08 04:22:57;;;;;;;1.33;1.20;;;;;;;13.20;100.00;93277.31;2545105;23;20005;-82
2021/07/08 04:23:58;;;;;;;1.20;1.10;;;;;;;13.20;100.00;93283.44;2545180;23;20092;-83
2021/07/08 04:24:59;;;;;;;6.95;1.15;;;;;;;13.21;100.00;93286.88;2557356;23;20006;-82
2021/07/08 04:25:59;;;;;;;1.48;1.00;;;;;;;13.31;100.00;93293.91;2569864;23;20028;-82
2021/07/08 04:27:00;;;;;;;2.22;1.00;;;;;;;13.31;100.00;93297.34;2557557;23;20541;-82
2021/07/08 04:28:01;;;;;;;1.90;0.95;;;;;;;13.28;100.00;93292.06;2557444;23;20029;-82
2021/07/08 04:29:03;;;;;;;2.45;1.13;;;;;;;13.26;100.00;93289.09;2557709;23;20004;-82
2021/07/08 04:30:05;;;;;;;1.77;1.02;;;;;;;13.25;100.00;93290.25;2545412;23;20002;-82
2021/07/08 04:31:07;;;;;;;1.27;1.10;;;;;;;13.25;100.00;93282.19;2558276;23;20091;-82
2021/07/08 04:32:07;;;;;;;1.98;1.30;;;;;;;13.20;100.00;93282.69;2557349;23;20928;-83
2021/07/08 04:33:08;;;;;;;1.30;1.20;;;;;;;13.16;100.00;93274.75;2544825;23;20009;-83
2021/07/08 04:34:09;;;;;;;1.30;1.05;;;;;;;13.17;100.00;93270.13;2544924;23;20032;-83
2021/07/08 04:35:11;;;;;;;2.25;1.33;;;;;;;13.19;100.00;93271.22;2557320;23;20043;-83
2021/07/08 04:36:12;;;;;;;1.98;1.30;;;;;;;13.17;100.00;93276.25;2557493;23;20009;-83
2021/07/08 04:37:13;;;;;;;5.97;1.80;;;;;;;13.21;100.00;93284.19;2545236;23;20005;-83
2021/07/08 04:38:14;;;;;;;2.35;1.27;;;;;;;13.24;100.00;93280.69;2545177;23;20443;-83
2021/07/08 04:39:15;;;;;;;1.63;1.52;;;;;;;13.23;100.00;93285.31;2557542;23;20055;-83
2021/07/08 04:40:17;;;;;;;1.60;1.50;;;;;;;13.29;100.00;93288.94;2557426;23;20395;-83
2021/07/08 04:41:18;;;;;;;2.47;1.60;;;;;;;13.32;100.00;93296.16;2557831;23;20417;-82
2021/07/08 04:42:19;;;;;;;3.72;1.20;;;;;;;13.34;100.00;93291.13;2545245;23;20009;-83
2021/07/08 04:43:20;;;;;;;1.40;1.30;;;;;;;13.32;100.00;93306.16;2545121;23;20523;-83
2021/07/08 04:44:21;;;;;;;1.20;1.10;;;;;;;13.28;100.00;93311.63;2544909;23;20639;-82